createdAt,value
2019-05-13T00:01:24.586Z,9.00
2019-05-13T00:05:29.658Z,8.90
2019-05-13T00:09:34.394Z,8.90
2019-05-13T00:13:39.347Z,8.90
2019-05-13T00:17:44.797Z,8.80
2019-05-13T00:21:49.548Z,8.70
2019-05-13T00:25:54.667Z,8.70
2019-05-13T00:29:59.583Z,8.90
2019-05-13T00:34:04.501Z,8.90
2019-05-13T00:38:10.401Z,9.00
2019-05-13T00:42:15.220Z,8.90
2019-05-13T00:46:20.258Z,9.00
2019-05-13T00:50:26.155Z,9.10
2019-05-13T00:54:31.141Z,9.20
2019-05-13T00:58:35.874Z,9.20
2019-05-13T01:02:40.600Z,9.00
2019-05-13T01:06:45.583Z,8.90
2019-05-13T01:10:50.317Z,9.00
2019-05-13T01:14:55.267Z,9.10
2019-05-13T01:19:00.113Z,9.20
2019-05-13T01:23:05.062Z,9.20
2019-05-13T01:27:10.072Z,9.20
2019-05-13T01:31:14.874Z,9.10
2019-05-13T01:35:19.943Z,8.90
2019-05-13T01:39:24.640Z,8.80
2019-05-13T01:43:29.497Z,8.70
2019-05-13T01:47:34.570Z,8.70
2019-05-13T01:51:39.429Z,8.40
2019-05-13T01:55:44.548Z,8.40
2019-05-13T01:59:49.437Z,8.30
2019-05-13T02:03:54.592Z,8.50
2019-05-13T02:08:00.676Z,8.70
2019-05-13T02:12:05.975Z,8.90
2019-05-13T02:16:11.086Z,8.80
2019-05-13T02:20:16.024Z,8.50
2019-05-13T02:24:21.002Z,8.10
2019-05-13T02:28:25.805Z,8.40
2019-05-13T02:32:32.864Z,8.40
2019-05-13T02:36:37.375Z,8.40
2019-05-13T02:40:43.267Z,8.60
2019-05-13T02:44:48.654Z,8.80
2019-05-13T02:48:54.479Z,8.90
2019-05-13T02:53:02.099Z,8.90
2019-05-13T02:57:05.879Z,9.20
2019-05-13T03:01:12.617Z,9.10
2019-05-13T03:05:18.265Z,9.00
2019-05-13T03:09:23.224Z,8.50
2019-05-13T03:13:28.267Z,8.60
2019-05-13T03:17:43.237Z,8.70
2019-05-13T03:21:47.665Z,8.90
2019-05-13T03:25:53.800Z,8.90
2019-05-13T03:29:58.904Z,8.80
2019-05-13T03:34:06.493Z,8.70
2019-05-13T03:38:12.750Z,9.00
2019-05-13T03:42:22.441Z,8.90
2019-05-13T03:46:29.039Z,8.90
2019-05-13T03:50:34.792Z,9.10
2019-05-13T03:54:43.609Z,9.10
2019-05-13T03:58:48.509Z,9.20
2019-05-13T04:02:54.029Z,8.40
2019-05-13T04:07:02.297Z,8.50
2019-05-13T04:11:05.642Z,8.50
2019-05-13T04:15:12.620Z,8.80
2019-05-13T04:19:17.739Z,9.00
2019-05-13T04:23:23.591Z,9.20
2019-05-13T04:27:32.368Z,9.20
2019-05-13T04:31:35.528Z,9.40
2019-05-13T04:35:42.559Z,9.40
2019-05-13T04:39:51.743Z,9.20
2019-05-13T04:43:54.483Z,9.20
2019-05-13T04:47:59.369Z,8.90
2019-05-13T04:52:04.284Z,8.80
2019-05-13T04:56:13.274Z,9.10
2019-05-13T05:00:23.358Z,9.20
2019-05-13T05:04:36.241Z,9.40
2019-05-13T05:09:07.850Z,9.60
2019-05-13T05:13:47.178Z,9.60
2019-05-13T05:18:22.324Z,9.60
2019-05-13T05:23:11.159Z,9.50
2019-05-13T05:27:51.435Z,9.80
2019-05-13T05:32:31.858Z,9.90
2019-05-13T05:37:31.143Z,10.10
2019-05-13T05:41:36.992Z,10.10
2019-05-13T05:45:41.881Z,10.10
2019-05-13T05:49:47.885Z,10.40
2019-05-13T05:53:53.859Z,10.50
2019-05-13T05:58:01.553Z,10.80
2019-05-13T06:02:12.132Z,10.80
2019-05-13T06:06:17.531Z,10.90
2019-05-13T06:10:22.662Z,11.20
2019-05-13T06:14:27.905Z,11.20
2019-05-13T06:18:33.393Z,11.10
2019-05-13T06:22:38.324Z,10.90
2019-05-13T06:26:43.238Z,11.10
2019-05-13T06:30:48.549Z,11.20
2019-05-13T06:34:53.449Z,11.10
2019-05-13T06:38:58.323Z,11.20
2019-05-13T06:43:03.504Z,11.30
2019-05-13T06:47:08.345Z,11.20
2019-05-13T06:51:13.185Z,11.30
2019-05-13T06:55:18.323Z,11.40
2019-05-13T06:59:23.151Z,11.60
2019-05-13T07:03:28.026Z,11.70
2019-05-13T07:07:32.867Z,11.60
2019-05-13T07:11:37.714Z,11.70
2019-05-13T07:15:42.636Z,11.60
2019-05-13T07:19:47.498Z,11.60
2019-05-13T07:23:54.864Z,11.70
2019-05-13T07:27:58.789Z,11.60
2019-05-13T07:32:03.626Z,11.40
2019-05-13T07:36:08.507Z,11.50
2019-05-13T07:40:13.695Z,11.60
2019-05-13T07:44:18.569Z,11.90
2019-05-13T07:48:27.522Z,11.70
2019-05-13T07:52:31.925Z,11.90
2019-05-13T07:56:36.263Z,11.80
2019-05-13T08:00:41.982Z,12.00
2019-05-13T08:04:49.414Z,12.30
2019-05-13T08:08:53.572Z,12.30
2019-05-13T08:12:58.400Z,12.40
2019-05-13T08:17:03.242Z,12.60
2019-05-13T08:21:08.501Z,12.70
2019-05-13T08:25:13.999Z,12.70
2019-05-13T08:29:18.754Z,12.60
2019-05-13T08:33:23.693Z,12.80
2019-05-13T08:37:28.674Z,13.10
2019-05-13T08:41:34.487Z,13.40
2019-05-13T08:45:41.891Z,13.40
2019-05-13T08:49:45.969Z,13.40
2019-05-13T08:53:51.655Z,13.20
2019-05-13T08:57:56.783Z,13.10
2019-05-13T09:02:03.147Z,13.30
2019-05-13T09:06:08.364Z,13.30
2019-05-13T09:10:13.696Z,13.20
2019-05-13T09:14:18.599Z,13.40
2019-05-13T09:18:24.611Z,13.70
2019-05-13T09:22:31.746Z,13.50
2019-05-13T09:26:36.362Z,13.60
2019-05-13T09:30:42.375Z,13.80
2019-05-13T09:34:47.630Z,14.00
2019-05-13T09:38:52.719Z,14.30
2019-05-13T09:42:57.872Z,14.30
2019-05-13T09:47:02.987Z,14.40
2019-05-13T09:51:09.045Z,14.40
2019-05-13T09:55:26.370Z,14.30
2019-05-13T09:59:22.146Z,14.40
2019-05-13T10:03:29.626Z,14.30
2019-05-13T10:07:33.835Z,14.40
2019-05-13T10:11:38.576Z,14.30
2019-05-13T10:15:47.975Z,14.50
2019-05-13T10:19:52.094Z,14.70
2019-05-13T10:23:58.798Z,14.50
2019-05-13T10:28:03.504Z,14.20
2019-05-13T10:32:08.613Z,14.20
2019-05-13T10:36:13.654Z,14.20
2019-05-13T10:40:18.610Z,14.30
2019-05-13T10:44:23.372Z,14.30
2019-05-13T10:48:28.372Z,14.50
2019-05-13T10:52:33.172Z,14.60
2019-05-13T10:56:39.061Z,14.70
2019-05-13T11:00:47.258Z,14.90
2019-05-13T11:04:52.733Z,15.00
2019-05-13T11:08:57.805Z,15.00
2019-05-13T11:13:06.061Z,15.20
2019-05-13T11:17:09.194Z,15.20
2019-05-13T11:21:14.039Z,15.30
2019-05-13T11:25:21.494Z,15.40
2019-05-13T11:29:25.625Z,15.10
2019-05-13T11:33:31.828Z,15.10
2019-05-13T11:37:36.854Z,15.10
2019-05-13T11:41:42.665Z,15.30
2019-05-13T11:45:47.706Z,15.60
2019-05-13T11:49:52.989Z,16.10
2019-05-13T11:53:57.816Z,16.00
2019-05-13T11:58:03.071Z,15.70
2019-05-13T12:02:08.176Z,15.80
2019-05-13T12:06:14.652Z,15.50
2019-05-13T12:10:22.620Z,15.40
2019-05-13T12:14:42.844Z,15.70
2019-05-13T12:18:32.649Z,15.60
2019-05-13T12:22:37.467Z,15.60
2019-05-13T12:26:43.455Z,15.70
2019-05-13T12:30:52.730Z,16.00
2019-05-13T12:34:56.341Z,15.90
2019-05-13T12:39:01.194Z,16.00
2019-05-13T12:43:07.636Z,15.90
2019-05-13T12:47:12.867Z,16.00
2019-05-13T12:51:17.731Z,16.50
2019-05-13T12:55:23.425Z,17.20
2019-05-13T12:59:28.245Z,17.80
2019-05-13T13:03:33.030Z,18.50
2019-05-13T13:07:42.407Z,18.80
2019-05-13T13:11:44.662Z,18.30
2019-05-13T13:15:52.413Z,17.90
2019-05-13T13:20:04.691Z,17.50
2019-05-13T13:24:04.421Z,17.10
2019-05-13T13:28:12.147Z,17.10
2019-05-13T13:32:15.597Z,17.70
2019-05-13T13:36:23.970Z,18.30
2019-05-13T13:40:29.738Z,19.00
2019-05-13T13:48:43.804Z,20.00
2019-05-13T13:52:47.120Z,19.90
2019-05-13T13:56:55.772Z,20.10
2019-05-13T14:01:07.274Z,20.50
2019-05-13T14:05:05.975Z,21.20
2019-05-13T14:06:58.777Z,20.00
2019-05-13T14:09:11.998Z,22.00
2019-05-13T14:13:17.181Z,20.90
2019-05-13T14:17:22.116Z,20.00
2019-05-13T14:21:27.012Z,19.10
2019-05-13T14:25:32.599Z,18.60
2019-05-13T14:29:41.844Z,18.10
2019-05-13T14:33:44.224Z,18.20
2019-05-13T14:37:51.693Z,18.10
2019-05-13T14:41:55.476Z,19.00
2019-05-13T14:46:02.265Z,20.30
2019-05-13T14:50:07.375Z,21.00
2019-05-13T14:54:12.588Z,21.90
2019-05-13T14:58:17.407Z,22.60
2019-05-13T15:02:23.353Z,22.90
2019-05-13T15:06:28.103Z,23.50
2019-05-13T15:10:34.272Z,23.60
2019-05-13T15:14:40.688Z,23.00
2019-05-13T15:18:45.753Z,22.30
2019-05-13T15:22:51.945Z,21.40
2019-05-13T15:26:57.087Z,21.30
2019-05-13T15:31:01.815Z,22.30
2019-05-13T15:35:10.170Z,24.10
2019-05-13T15:39:13.925Z,26.00
2019-05-13T15:43:18.857Z,27.20
2019-05-13T15:47:26.794Z,28.00
2019-05-13T15:51:31.601Z,28.20
2019-05-13T15:55:36.559Z,27.60
2019-05-13T15:59:41.613Z,26.10
2019-05-13T16:03:48.001Z,24.40
2019-05-13T16:07:52.932Z,25.20
2019-05-13T16:11:57.948Z,27.00
2019-05-13T16:16:02.841Z,27.90
2019-05-13T16:20:08.541Z,29.40
2019-05-13T16:24:13.526Z,30.70
2019-05-13T16:28:18.340Z,32.20
2019-05-13T16:32:23.847Z,33.60
2019-05-13T16:36:28.688Z,33.00
2019-05-13T16:40:36.663Z,32.70
2019-05-13T16:44:42.991Z,32.00
2019-05-13T16:48:49.165Z,30.70
2019-05-13T16:52:53.896Z,29.30
2019-05-13T16:57:01.058Z,27.50
2019-05-13T17:01:05.274Z,26.60
2019-05-13T17:05:12.005Z,25.10
2019-05-13T17:09:17.169Z,24.00
2019-05-13T17:13:22.213Z,22.80
2019-05-13T17:17:28.252Z,21.40
2019-05-13T17:21:35.971Z,20.70
2019-05-13T17:25:39.539Z,20.00
2019-05-13T17:29:44.340Z,19.70
2019-05-13T17:33:51.825Z,19.50
2019-05-13T17:37:56.390Z,19.00
2019-05-13T17:42:01.623Z,18.70
2019-05-13T17:46:06.853Z,18.10
2019-05-13T17:50:12.242Z,17.90
2019-05-13T17:54:17.207Z,17.60
2019-05-13T17:58:22.249Z,17.60
2019-05-13T18:02:27.186Z,17.40
2019-05-13T18:06:32.309Z,17.40
2019-05-13T18:10:37.224Z,17.20
2019-05-13T18:14:42.426Z,16.90
2019-05-13T18:18:47.896Z,16.70
2019-05-13T18:22:52.754Z,16.80
2019-05-13T18:26:57.749Z,16.80
2019-05-13T18:31:02.770Z,16.70
2019-05-13T18:35:08.223Z,16.40
2019-05-13T18:39:13.108Z,16.30
2019-05-13T18:43:17.942Z,16.20
2019-05-13T18:47:23.418Z,16.30
2019-05-13T18:51:28.636Z,16.10
2019-05-13T18:55:33.756Z,16.10
2019-05-13T18:59:38.652Z,16.00
2019-05-13T19:03:43.740Z,16.00
2019-05-13T19:07:51.082Z,15.90
2019-05-13T19:11:55.182Z,15.80
2019-05-13T19:16:02.241Z,15.80
2019-05-13T19:20:07.956Z,15.60
2019-05-13T19:24:13.540Z,15.60
2019-05-13T19:28:18.651Z,15.50
2019-05-13T19:32:23.473Z,15.20
2019-05-13T19:36:28.608Z,15.10
2019-05-13T19:40:33.536Z,15.00
2019-05-13T19:44:38.599Z,14.90
2019-05-13T19:48:43.408Z,14.70
2019-05-13T19:52:48.284Z,14.60
2019-05-13T19:56:53.540Z,14.50
2019-05-13T20:00:58.374Z,14.10
2019-05-13T20:05:03.677Z,14.10
2019-05-13T20:09:09.859Z,14.10
2019-05-13T20:13:14.791Z,14.00
2019-05-13T20:17:19.680Z,13.90
2019-05-13T20:21:24.580Z,13.80
2019-05-13T20:25:31.229Z,13.70
2019-05-13T20:29:36.362Z,13.60
2019-05-13T20:33:42.984Z,13.50
2019-05-13T20:37:47.699Z,13.50
2019-05-13T20:41:55.720Z,13.70
2019-05-13T20:46:01.720Z,13.90
2019-05-13T20:50:06.388Z,14.00
2019-05-13T20:54:11.499Z,13.70
2019-05-13T20:58:16.596Z,13.60
2019-05-13T21:02:22.183Z,13.40
2019-05-13T21:06:27.707Z,13.30
2019-05-13T21:10:32.531Z,13.20
2019-05-13T21:14:38.593Z,13.10
2019-05-13T21:18:43.753Z,13.10
2019-05-13T21:22:48.640Z,13.10
2019-05-13T21:26:54.991Z,13.10
2019-05-13T21:31:02.112Z,13.00
2019-05-13T21:35:08.501Z,13.00
2019-05-13T21:39:13.473Z,13.00
2019-05-13T21:43:21.624Z,13.00
2019-05-13T21:47:26.765Z,13.00
2019-05-13T21:51:31.603Z,13.20
2019-05-13T21:55:36.553Z,13.20
2019-05-13T21:59:41.840Z,13.10
2019-05-13T22:03:48.049Z,12.80
2019-05-13T22:07:52.963Z,12.60
2019-05-13T22:11:57.835Z,12.50
2019-05-13T22:16:02.877Z,12.40
2019-05-13T22:20:07.919Z,12.30
2019-05-13T22:24:12.953Z,12.20
2019-05-13T22:28:17.937Z,12.00
2019-05-13T22:32:22.740Z,11.60
2019-05-13T22:36:28.536Z,11.50
2019-05-13T22:40:33.414Z,11.40
2019-05-13T22:44:38.612Z,11.30
2019-05-13T22:48:43.373Z,11.30
2019-05-13T22:52:48.190Z,11.20
2019-05-13T22:56:53.139Z,11.40
2019-05-13T23:00:58.089Z,11.40
2019-05-13T23:05:03.203Z,11.50
2019-05-13T23:09:08.464Z,11.40
2019-05-13T23:13:13.228Z,11.40
2019-05-13T23:17:18.453Z,11.40
2019-05-13T23:21:23.229Z,11.20
2019-05-13T23:25:28.229Z,11.10
2019-05-13T23:29:34.364Z,10.90
2019-05-13T23:33:41.603Z,10.60
2019-05-13T23:37:46.097Z,10.40
2019-05-13T23:41:52.146Z,10.00
2019-05-13T23:45:57.353Z,9.80
2019-05-13T23:50:02.204Z,9.50
2019-05-13T23:54:07.341Z,9.30
2019-05-13T23:58:12.325Z,9.30
